Time;durP1;ratioP1;P1;durP2;ratioP2;P2;SDS_P1;SDS_P2;PMS_P1;PMS_P2;Temp;Humidity;BMP_temperature;BMP_pressure;BME280_temperature;BME280_humidity;BME280_pressure;Samples;Min_cycle;Max_cycle;Signal;HPM_P1;HPM_P2
2023/01/21 00:01:15;;;;;;;3.30;1.98;;;;;;;;;;5050991;28;20100;-68
2023/01/21 00:03:42;;;;;;;3.15;2.15;;;;;;;;;;5050930;28;20100;-60
2023/01/21 00:06:08;;;;;;;3.70;1.98;;;;;;;;;;5050926;28;20025;-60
2023/01/21 00:08:34;;;;;;;3.90;2.28;;;;;;;;;;5050916;28;20044;-66
2023/01/21 00:11:10;;;;;;;2.90;1.90;;;;;;;;;;5050724;28;20029;-62
2023/01/21 00:13:36;;;;;;;3.60;2.10;;;;;;;;;;5051161;28;20112;-68
2023/01/21 00:16:05;;;;;;;2.85;1.70;;;;;;;;;;5050598;28;20036;-69
2023/01/21 00:18:32;;;;;;;2.90;1.80;;;;;;;;;;5050841;28;20024;-70
2023/01/21 00:20:58;;;;;;;2.85;2.00;;;;;;;;;;5050275;28;20032;-62
2023/01/21 00:23:24;;;;;;;3.10;2.08;;;;;;;;;;5050800;28;20096;-66
2023/01/21 00:25:50;;;;;;;2.90;1.60;;;;;;;;;;5050538;28;20114;-62
2023/01/21 00:28:16;;;;;;;3.13;2.00;;;;;;;;;;5050235;28;20040;-68
2023/01/21 00:30:42;;;;;;;2.50;1.92;;;;;;;;;;5050594;28;20029;-68
2023/01/21 00:33:07;;;;;;;3.05;2.05;;;;;;;;;;5051095;28;20025;-59
2023/01/21 00:35:33;;;;;;;3.03;2.10;;;;;;;;;;5050698;28;20024;-61
2023/01/21 00:37:59;;;;;;;2.95;2.15;;;;;;;;;;5050442;28;20032;-59
2023/01/21 00:40:25;;;;;;;3.17;2.17;;;;;;;;;;5050685;28;20025;-60
2023/01/21 00:42:51;;;;;;;3.83;2.33;;;;;;;;;;5049906;28;20028;-60
2023/01/21 00:45:17;;;;;;;3.45;1.90;;;;;;;;;;5050786;28;20108;-61
2023/01/21 00:47:43;;;;;;;3.50;2.15;;;;;;;;;;5050328;28;20131;-68
2023/01/21 00:50:10;;;;;;;3.50;1.88;;;;;;;;;;5050908;28;20450;-60
2023/01/21 00:52:37;;;;;;;3.13;2.00;;;;;;;;;;5051211;28;20420;-59
2023/01/21 00:55:03;;;;;;;3.90;2.47;;;;;;;;;;5050321;28;20036;-60
2023/01/21 00:57:29;;;;;;;2.65;1.70;;;;;;;;;;5049860;28;20505;-67
2023/01/21 00:59:55;;;;;;;2.55;1.80;;;;;;;;;;5050259;28;20032;-68
2023/01/21 01:02:21;;;;;;;2.65;1.98;;;;;;;;;;5050474;28;20535;-66
2023/01/21 01:04:47;;;;;;;3.45;2.08;;;;;;;;;;5050232;28;20029;-63
2023/01/21 01:07:13;;;;;;;2.95;2.00;;;;;;;;;;5053395;28;20162;-65
2023/01/21 01:09:39;;;;;;;2.63;1.48;;;;;;;;;;5054462;28;20036;-67
2023/01/21 01:12:05;;;;;;;3.10;1.92;;;;;;;;;;5054224;28;20013;-69
2023/01/21 01:14:31;;;;;;;3.70;2.30;;;;;;;;;;5054106;28;20029;-60
2023/01/21 01:16:57;;;;;;;2.63;2.00;;;;;;;;;;5054200;28;20378;-69
2023/01/21 01:19:24;;;;;;;3.03;2.47;;;;;;;;;;5054082;28;20017;-68
2023/01/21 01:21:50;;;;;;;2.58;1.73;;;;;;;;;;5053449;28;20036;-64
2023/01/21 01:24:16;;;;;;;3.45;2.05;;;;;;;;;;5053980;28;20025;-64
2023/01/21 01:26:42;;;;;;;6.07;2.67;;;;;;;;;;5053502;28;20079;-61
2023/01/21 01:29:10;;;;;;;3.20;2.28;;;;;;;;;;5054130;28;20025;-59
2023/01/21 01:31:36;;;;;;;3.97;2.00;;;;;;;;;;5054123;28;20090;-65
2023/01/21 01:34:02;;;;;;;3.28;2.08;;;;;;;;;;5053485;28;20025;-64
2023/01/21 01:36:28;;;;;;;3.63;2.10;;;;;;;;;;5053301;28;20116;-68
2023/01/21 01:38:55;;;;;;;2.85;1.90;;;;;;;;;;5053457;28;20017;-61
2023/01/21 01:41:22;;;;;;;3.40;2.08;;;;;;;;;;5053239;28;20041;-63
2023/01/21 01:43:56;;;;;;;3.20;2.10;;;;;;;;;;5053451;28;20051;-70
2023/01/21 01:46:22;;;;;;;3.40;1.85;;;;;;;;;;5053632;28;20033;-61
2023/01/21 01:48:52;;;;;;;2.78;1.67;;;;;;;;;;5053293;28;20041;-62
2023/01/21 01:51:19;;;;;;;3.00;2.10;;;;;;;;;;5053489;28;20151;-70
2023/01/21 01:53:46;;;;;;;2.40;1.65;;;;;;;;;;5053091;28;20075;-64
2023/01/21 01:56:12;;;;;;;3.42;2.20;;;;;;;;;;5053126;28;20017;-60
2023/01/21 01:58:38;;;;;;;2.92;2.17;;;;;;;;;;5053587;28;20117;-68
2023/01/21 02:01:04;;;;;;;3.97;2.03;;;;;;;;;;5053056;28;20430;-65
2023/01/21 02:03:45;;;;;;;2.92;2.28;;;;;;;;;;5053159;28;20040;-63
2023/01/21 02:06:12;;;;;;;3.63;2.30;;;;;;;;;;5053128;28;20033;-69
2023/01/21 02:08:38;;;;;;;2.92;2.20;;;;;;;;;;5052944;28;20048;-70
2023/01/21 02:11:11;;;;;;;3.70;2.40;;;;;;;;;;5052899;28;20025;-63
2023/01/21 02:13:37;;;;;;;2.78;2.05;;;;;;;;;;5053227;28;20366;-69
2023/01/21 02:16:11;;;;;;;3.80;2.70;;;;;;;;;;5052304;28;20389;-69
2023/01/21 02:18:44;;;;;;;5.03;2.42;;;;;;;;;;5053179;28;20100;-70
2023/01/21 02:21:19;;;;;;;3.22;1.95;;;;;;;;;;5053023;28;20102;-63
2023/01/21 02:24:05;;;;;;;2.67;2.05;;;;;;;;;;5052164;28;20508;-61
2023/01/21 02:26:37;;;;;;;2.90;2.05;;;;;;;;;;5052694;28;20040;-64
2023/01/21 02:29:13;;;;;;;3.40;2.03;;;;;;;;;;5052328;28;20048;-62
2023/01/21 02:31:57;;;;;;;3.50;2.00;;;;;;;;;;5053191;28;20025;-60
2023/01/21 02:34:41;;;;;;;3.53;2.17;;;;;;;;;;5052268;28;20056;-70
2023/01/21 02:37:09;;;;;;;4.03;2.30;;;;;;;;;;5052808;28;20036;-68
2023/01/21 02:39:51;;;;;;;4.57;2.80;;;;;;;;;;5052734;28;20029;-70
2023/01/21 02:42:24;;;;;;;2.88;2.22;;;;;;;;;;5052528;28;20500;-70
2023/01/21 02:44:55;;;;;;;4.13;2.20;;;;;;;;;;5051789;28;20048;-70
2023/01/21 02:47:27;;;;;;;3.70;2.30;;;;;;;;;;5052414;28;20104;-70
2023/01/21 02:50:00;;;;;;;3.83;2.30;;;;;;;;;;5052065;28;20048;-61
2023/01/21 02:52:26;;;;;;;3.30;2.55;;;;;;;;;;5052381;28;20017;-69
2023/01/21 02:54:54;;;;;;;3.85;2.30;;;;;;;;;;5052015;28;20052;-66
2023/01/21 02:57:34;;;;;;;3.90;2.28;;;;;;;;;;5052289;28;20025;-62
2023/01/21 03:00:02;;;;;;;3.40;2.08;;;;;;;;;;5051984;28;20048;-61
2023/01/21 03:02:43;;;;;;;3.15;2.30;;;;;;;;;;5051998;28;20072;-70
2023/01/21 03:05:09;;;;;;;3.58;2.17;;;;;;;;;;5052682;28;20432;-70
2023/01/21 03:07:36;;;;;;;3.75;2.40;;;;;;;;;;5051529;28;20037;-60
2023/01/21 03:10:24;;;;;;;3.55;2.78;;;;;;;;;;5052038;28;20029;-65
2023/01/21 03:13:01;;;;;;;4.47;2.60;;;;;;;;;;5051545;28;20033;-68
2023/01/21 03:18:19;;;;;;;4.25;2.80;;;;;;;;;;5052042;28;20079;-69
2023/01/21 03:20:48;;;;;;;3.63;2.50;;;;;;;;;;5051291;28;20112;-64
2023/01/21 03:23:20;;;;;;;3.92;2.55;;;;;;;;;;5051586;28;20032;-64
2023/01/21 03:25:47;;;;;;;3.38;2.60;;;;;;;;;;5051529;28;20032;-61
2023/01/21 03:28:16;;;;;;;3.38;2.53;;;;;;;;;;5050800;28;20079;-67
2023/01/21 03:30:45;;;;;;;3.78;2.83;;;;;;;;;;5051375;28;20024;-64
2023/01/21 03:33:12;;;;;;;4.20;2.80;;;;;;;;;;5051592;28;20021;-61
2023/01/21 03:35:41;;;;;;;3.50;2.50;;;;;;;;;;5051547;28;20162;-70
2023/01/21 03:38:14;;;;;;;5.80;2.92;;;;;;;;;;5051784;28;20499;-65
2023/01/21 03:40:42;;;;;;;3.63;2.45;;;;;;;;;;5051498;28;20082;-60
2023/01/21 03:43:09;;;;;;;3.83;2.97;;;;;;;;;;5051216;28;20029;-62
2023/01/21 03:45:53;;;;;;;5.13;2.30;;;;;;;;;;5051323;28;20021;-67
2023/01/21 03:48:38;;;;;;;4.18;2.90;;;;;;;;;;5051245;28;20044;-70
2023/01/21 03:51:09;;;;;;;3.08;2.30;;;;;;;;;;5051058;28;20021;-61
2023/01/21 03:53:35;;;;;;;5.85;2.80;;;;;;;;;;5051517;28;20021;-70
2023/01/21 03:56:01;;;;;;;4.10;2.72;;;;;;;;;;5050981;28;20036;-61
2023/01/21 03:58:28;;;;;;;5.00;2.65;;;;;;;;;;5050910;28;20143;-65
2023/01/21 04:00:54;;;;;;;5.13;2.90;;;;;;;;;;5050688;28;20032;-60
2023/01/21 04:03:20;;;;;;;4.47;2.97;;;;;;;;;;5050920;28;20029;-62
2023/01/21 04:05:46;;;;;;;4.18;2.83;;;;;;;;;;5050406;28;20071;-66
2023/01/21 04:08:12;;;;;;;4.55;2.80;;;;;;;;;;5050920;28;20064;-67
2023/01/21 04:10:38;;;;;;;5.85;3.50;;;;;;;;;;5051271;28;20031;-70
2023/01/21 04:13:04;;;;;;;5.60;3.10;;;;;;;;;;5050705;28;20107;-60
2023/01/21 04:15:30;;;;;;;4.13;3.05;;;;;;;;;;5050969;28;20385;-63
2023/01/21 04:17:56;;;;;;;4.43;2.90;;;;;;;;;;5050689;28;20079;-60
2023/01/21 04:20:21;;;;;;;4.28;3.13;;;;;;;;;;5050598;28;20032;-61
2023/01/21 04:22:47;;;;;;;4.90;3.20;;;;;;;;;;5050728;28;20040;-63
2023/01/21 04:25:13;;;;;;;4.60;3.13;;;;;;;;;;5049142;28;20029;-61
2023/01/21 04:27:39;;;;;;;3.65;3.00;;;;;;;;;;5051045;28;20484;-61
2023/01/21 04:30:06;;;;;;;4.18;3.10;;;;;;;;;;5050662;28;20023;-69
2023/01/21 04:32:32;;;;;;;4.53;3.33;;;;;;;;;;5050395;28;20051;-61
2023/01/21 04:34:58;;;;;;;6.15;3.50;;;;;;;;;;5050617;28;20477;-68
2023/01/21 04:37:24;;;;;;;4.70;3.50;;;;;;;;;;5050516;28;20108;-61
2023/01/21 04:39:50;;;;;;;5.70;3.88;;;;;;;;;;5052000;28;20029;-61
2023/01/21 04:42:16;;;;;;;3.72;3.17;;;;;;;;;;5054479;28;20158;-70
2023/01/21 04:44:43;;;;;;;5.60;3.20;;;;;;;;;;5054624;28;20583;-67
2023/01/21 04:47:09;;;;;;;4.93;3.63;;;;;;;;;;5054654;28;20036;-62
2023/01/21 04:49:35;;;;;;;3.97;3.03;;;;;;;;;;5054539;28;20384;-70
2023/01/21 04:52:01;;;;;;;5.22;3.65;;;;;;;;;;5054617;28;20021;-67
2023/01/21 04:54:27;;;;;;;4.95;3.38;;;;;;;;;;5054301;28;20465;-65
2023/01/21 04:56:53;;;;;;;4.80;3.60;;;;;;;;;;5054424;28;20078;-67
2023/01/21 04:59:19;;;;;;;5.88;3.72;;;;;;;;;;5054153;28;20029;-67
2023/01/21 05:01:45;;;;;;;4.90;3.85;;;;;;;;;;5054224;28;20025;-67
2023/01/21 05:04:11;;;;;;;5.13;3.22;;;;;;;;;;5054389;28;20035;-61
2023/01/21 05:06:37;;;;;;;6.93;4.47;;;;;;;;;;5054150;28;20087;-61
2023/01/21 05:09:03;;;;;;;8.23;3.92;;;;;;;;;;5053756;28;20047;-67
2023/01/21 05:11:29;;;;;;;6.65;4.07;;;;;;;;;;5053880;28;20087;-63
2023/01/21 05:13:55;;;;;;;5.35;4.05;;;;;;;;;;5054073;28;20041;-61
2023/01/21 05:16:21;;;;;;;5.13;3.63;;;;;;;;;;5053915;28;20384;-70
2023/01/21 05:18:47;;;;;;;4.68;3.85;;;;;;;;;;5053869;28;20029;-61
2023/01/21 05:21:13;;;;;;;6.32;3.78;;;;;;;;;;5053795;28;20389;-65
2023/01/21 05:23:39;;;;;;;5.40;3.92;;;;;;;;;;5054323;28;20025;-64
2023/01/21 05:26:05;;;;;;;5.93;4.43;;;;;;;;;;5053969;28;20029;-64
2023/01/21 05:28:31;;;;;;;6.57;4.00;;;;;;;;;;5053586;28;20048;-58
2023/01/21 05:31:01;;;;;;;5.95;3.38;;;;;;;;;;5053876;28;20112;-62
2023/01/21 05:33:34;;;;;;;6.93;3.78;;;;;;;;;;5053273;28;20025;-63
2023/01/21 05:36:01;;;;;;;5.82;3.50;;;;;;;;;;5053655;28;20386;-64
2023/01/21 05:38:27;;;;;;;6.13;4.20;;;;;;;;;;5053488;28;20174;-60
2023/01/21 05:41:00;;;;;;;5.55;4.20;;;;;;;;;;5053519;28;20056;-59
2023/01/21 05:43:26;;;;;;;6.95;4.05;;;;;;;;;;5053438;28;20021;-63
2023/01/21 05:45:52;;;;;;;6.30;4.18;;;;;;;;;;5053652;28;20060;-68
2023/01/21 05:48:18;;;;;;;5.57;4.30;;;;;;;;;;5052897;28;20515;-62
2023/01/21 05:50:44;;;;;;;5.75;3.75;;;;;;;;;;5053072;28;20025;-68
2023/01/21 05:53:10;;;;;;;7.00;4.32;;;;;;;;;;5053087;28;20025;-69
2023/01/21 05:55:36;;;;;;;5.55;3.90;;;;;;;;;;5053188;28;20078;-67
2023/01/21 05:58:02;;;;;;;5.30;3.85;;;;;;;;;;5053583;28;20377;-60
2023/01/21 06:00:28;;;;;;;4.50;3.35;;;;;;;;;;5052886;28;20025;-69
2023/01/21 06:02:54;;;;;;;5.13;3.90;;;;;;;;;;5053286;28;20025;-65
2023/01/21 06:05:20;;;;;;;6.30;4.70;;;;;;;;;;5052871;28;20105;-68
2023/01/21 06:07:46;;;;;;;5.88;4.00;;;;;;;;;;5053192;28;20036;-63
2023/01/21 06:10:12;;;;;;;6.90;4.45;;;;;;;;;;5053323;28;20036;-68
2023/01/21 06:12:38;;;;;;;6.10;4.40;;;;;;;;;;5053326;28;20389;-62
2023/01/21 06:15:05;;;;;;;6.63;4.65;;;;;;;;;;5052844;28;20104;-63
2023/01/21 06:17:31;;;;;;;5.25;4.00;;;;;;;;;;5052742;28;20017;-60
2023/01/21 06:19:56;;;;;;;5.45;3.97;;;;;;;;;;5052976;28;20029;-60
2023/01/21 06:22:22;;;;;;;6.00;4.45;;;;;;;;;;5052691;28;20029;-64
2023/01/21 06:24:48;;;;;;;5.38;4.13;;;;;;;;;;5052811;28;20495;-68
2023/01/21 06:27:14;;;;;;;5.60;4.15;;;;;;;;;;5052483;28;20029;-61
2023/01/21 06:29:40;;;;;;;5.70;4.30;;;;;;;;;;5052581;28;20083;-60
2023/01/21 06:32:06;;;;;;;5.60;4.40;;;;;;;;;;5052691;28;20458;-67
2023/01/21 06:34:32;;;;;;;6.22;5.07;;;;;;;;;;5052378;28;20028;-60
2023/01/21 06:36:58;;;;;;;6.45;4.43;;;;;;;;;;5052580;28;20025;-60
2023/01/21 06:39:24;;;;;;;6.40;5.20;;;;;;;;;;5052332;28;20112;-64
2023/01/21 06:41:50;;;;;;;7.88;4.65;;;;;;;;;;5052616;28;20032;-66
2023/01/21 06:44:16;;;;;;;7.45;4.60;;;;;;;;;;5051993;28;20033;-61
2023/01/21 06:46:42;;;;;;;6.25;4.47;;;;;;;;;;5052913;28;20017;-59
2023/01/21 06:49:08;;;;;;;6.35;4.85;;;;;;;;;;5052577;28;20474;-67
2023/01/21 06:51:34;;;;;;;7.32;4.95;;;;;;;;;;5052138;28;20021;-59
2023/01/21 06:54:00;;;;;;;6.60;5.00;;;;;;;;;;5052271;28;20474;-60
2023/01/21 06:56:26;;;;;;;7.60;5.18;;;;;;;;;;5052017;28;20021;-59
2023/01/21 06:58:52;;;;;;;6.05;4.65;;;;;;;;;;5051903;28;20025;-67
2023/01/21 07:01:18;;;;;;;6.22;4.90;;;;;;;;;;5051157;28;20025;-60
2023/01/21 07:03:44;;;;;;;8.13;5.07;;;;;;;;;;5052036;28;20025;-61
2023/01/21 07:06:10;;;;;;;8.82;4.97;;;;;;;;;;5052134;28;20493;-59
2023/01/21 07:08:36;;;;;;;7.85;5.57;;;;;;;;;;5051723;28;20112;-65
2023/01/21 07:11:02;;;;;;;7.50;5.70;;;;;;;;;;5050954;28;20445;-66
2023/01/21 07:13:28;;;;;;;6.00;4.90;;;;;;;;;;5051177;28;20039;-66
2023/01/21 07:15:58;;;;;;;7.90;5.70;;;;;;;;;;5050787;28;20025;-65
2023/01/21 07:18:24;;;;;;;9.43;4.75;;;;;;;;;;5050977;28;20048;-60
2023/01/21 07:20:50;;;;;;;5.95;4.70;;;;;;;;;;5051500;28;20021;-64
2023/01/21 07:23:16;;;;;;;7.18;5.30;;;;;;;;;;5051496;28;20096;-66
2023/01/21 07:25:42;;;;;;;9.13;5.35;;;;;;;;;;5052073;28;20396;-65
2023/01/21 07:28:08;;;;;;;8.02;5.47;;;;;;;;;;5051918;28;20083;-59
2023/01/21 07:30:34;;;;;;;7.97;5.18;;;;;;;;;;5051473;28;20017;-60
2023/01/21 07:33:07;;;;;;;6.53;4.63;;;;;;;;;;5050858;28;20040;-63
2023/01/21 07:35:33;;;;;;;7.20;4.95;;;;;;;;;;5045886;28;20856;-61
2023/01/21 07:37:59;;;;;;;8.05;4.78;;;;;;;;;;5051114;28;20451;-63
2023/01/21 07:40:25;;;;;;;8.27;5.28;;;;;;;;;;5050516;28;20040;-58
2023/01/21 07:42:52;;;;;;;5.88;4.63;;;;;;;;;;5051144;28;20021;-67
2023/01/21 07:45:18;;;;;;;6.38;4.80;;;;;;;;;;5050709;28;20086;-62
2023/01/21 07:47:44;;;;;;;8.20;4.78;;;;;;;;;;5050703;28;20064;-65
2023/01/21 07:50:10;;;;;;;6.88;4.72;;;;;;;;;;5050354;28;20480;-66
2023/01/21 07:52:36;;;;;;;9.07;5.97;;;;;;;;;;5050539;28;20025;-67
2023/01/21 07:55:02;;;;;;;8.90;5.80;;;;;;;;;;5050739;28;20496;-66
2023/01/21 07:57:28;;;;;;;8.88;6.43;;;;;;;;;;5050736;28;20020;-59
2023/01/21 07:59:54;;;;;;;7.82;5.85;;;;;;;;;;5050707;28;20036;-59
2023/01/21 08:02:20;;;;;;;9.10;6.07;;;;;;;;;;5049512;28;20445;-60
2023/01/21 08:04:47;;;;;;;9.57;6.32;;;;;;;;;;5050480;28;20033;-57
2023/01/21 08:07:13;;;;;;;9.23;5.93;;;;;;;;;;5050213;28;20563;-58
2023/01/21 08:09:39;;;;;;;8.38;6.15;;;;;;;;;;5050804;28;20108;-66
2023/01/21 08:12:05;;;;;;;7.40;5.90;;;;;;;;;;5050645;28;20049;-60
2023/01/21 08:14:31;;;;;;;8.07;6.18;;;;;;;;;;5049911;28;20087;-57
2023/01/21 08:16:57;;;;;;;10.02;6.13;;;;;;;;;;5050697;28;20481;-66
2023/01/21 08:19:23;;;;;;;8.45;5.40;;;;;;;;;;5050420;28;20039;-65
2023/01/21 08:21:50;;;;;;;7.97;5.70;;;;;;;;;;5050759;28;20464;-59
2023/01/21 08:24:16;;;;;;;9.40;5.95;;;;;;;;;;5050403;28;20032;-67
2023/01/21 08:26:42;;;;;;;7.95;6.22;;;;;;;;;;5051044;28;20021;-59
2023/01/21 08:29:08;;;;;;;9.30;6.78;;;;;;;;;;5050520;28;20041;-60
2023/01/21 08:31:34;;;;;;;7.53;5.85;;;;;;;;;;5049210;28;20076;-61
2023/01/21 08:34:00;;;;;;;8.15;5.68;;;;;;;;;;5050307;28;20032;-65
2023/01/21 08:36:26;;;;;;;8.15;5.72;;;;;;;;;;5050366;28;20025;-68
2023/01/21 08:39:00;;;;;;;7.93;5.57;;;;;;;;;;5050225;28;20033;-67
2023/01/21 08:41:27;;;;;;;8.35;6.25;;;;;;;;;;5050154;28;20025;-65
2023/01/21 08:43:53;;;;;;;7.60;6.63;;;;;;;;;;5049104;28;20052;-67
2023/01/21 08:46:19;;;;;;;9.00;6.32;;;;;;;;;;5049016;28;20165;-67
2023/01/21 08:48:45;;;;;;;7.15;6.15;;;;;;;;;;5049883;28;20040;-59
2023/01/21 08:51:11;;;;;;;9.23;6.38;;;;;;;;;;5050548;28;20469;-59
2023/01/21 08:53:37;;;;;;;10.88;7.47;;;;;;;;;;5050241;28;20033;-62
2023/01/21 08:56:03;;;;;;;8.20;6.10;;;;;;;;;;5049017;28;20028;-60
2023/01/21 08:58:30;;;;;;;11.68;6.95;;;;;;;;;;5048918;28;20037;-64
2023/01/21 09:00:56;;;;;;;13.65;6.25;;;;;;;;;;5049336;28;20021;-60
2023/01/21 09:03:22;;;;;;;9.15;6.45;;;;;;;;;;5050025;28;20564;-59
2023/01/21 09:05:50;;;;;;;16.35;6.80;;;;;;;;;;5050568;28;20064;-68
2023/01/21 09:08:16;;;;;;;11.25;5.95;;;;;;;;;;5050265;28;20044;-59
2023/01/21 09:11:00;;;;;;;8.57;5.80;;;;;;;;;;5050831;28;20370;-58
2023/01/21 09:13:30;;;;;;;9.43;5.95;;;;;;;;;;5050299;28;20087;-67
2023/01/21 09:15:57;;;;;;;12.25;5.80;;;;;;;;;;5050741;28;20021;-68
2023/01/21 09:18:23;;;;;;;10.13;6.03;;;;;;;;;;5049659;28;20116;-59
2023/01/21 09:20:49;;;;;;;9.95;6.80;;;;;;;;;;5049163;28;20020;-67
2023/01/21 09:23:24;;;;;;;14.65;6.30;;;;;;;;;;5048500;28;20425;-63
2023/01/21 09:25:51;;;;;;;11.48;5.95;;;;;;;;;;5049688;28;20029;-60
2023/01/21 09:28:17;;;;;;;9.48;6.28;;;;;;;;;;5053542;28;20072;-59
2023/01/21 09:30:43;;;;;;;13.25;5.95;;;;;;;;;;5053674;28;20053;-59
2023/01/21 09:33:09;;;;;;;10.70;6.22;;;;;;;;;;5054250;28;20036;-59
2023/01/21 09:35:35;;;;;;;21.92;6.78;;;;;;;;;;5053630;28;20032;-67
2023/01/21 09:38:01;;;;;;;12.50;5.72;;;;;;;;;;5053881;28;20021;-65
2023/01/21 09:40:27;;;;;;;10.95;6.03;;;;;;;;;;5052170;28;20061;-59
2023/01/21 09:42:53;;;;;;;9.20;5.38;;;;;;;;;;5052088;28;20122;-60
2023/01/21 09:45:20;;;;;;;9.10;5.63;;;;;;;;;;5052619;28;20100;-67
2023/01/21 09:47:47;;;;;;;9.35;5.82;;;;;;;;;;5053597;28;20021;-57
2023/01/21 09:50:15;;;;;;;11.88;5.45;;;;;;;;;;5053217;28;20056;-60
2023/01/21 09:53:00;;;;;;;20.02;6.32;;;;;;;;;;5053815;28;20047;-58
2023/01/21 09:55:31;;;;;;;11.75;6.13;;;;;;;;;;5053400;28;20023;-57
2023/01/21 09:58:09;;;;;;;10.20;5.53;;;;;;;;;;5052621;28;20083;-60
2023/01/21 10:00:53;;;;;;;10.20;5.95;;;;;;;;;;5049917;28;20044;-58
2023/01/21 10:03:38;;;;;;;8.95;5.72;;;;;;;;;;5050316;28;20035;-56
2023/01/21 10:06:22;;;;;;;11.20;5.75;;;;;;;;;;5051075;28;20037;-58
2023/01/21 10:09:09;;;;;;;13.18;5.95;;;;;;;;;;5048608;28;20505;-56
2023/01/21 10:11:37;;;;;;;10.23;5.80;;;;;;;;;;5017232;28;20544;-67
2023/01/21 10:14:12;;;;;;;19.10;6.25;;;;;;;;;;5049247;28;20451;-58
2023/01/21 10:16:48;;;;;;;8.57;5.93;;;;;;;;;;5051312;28;20111;-65
2023/01/21 10:19:20;;;;;;;10.77;6.15;;;;;;;;;;5050045;28;20031;-56
2023/01/21 10:21:50;;;;;;;7.95;5.95;;;;;;;;;;5049160;28;20028;-57
2023/01/21 10:24:20;;;;;;;7.85;5.70;;;;;;;;;;5050962;28;20486;-56
2023/01/21 10:26:47;;;;;;;7.80;5.32;;;;;;;;;;5049023;28;20029;-67
2023/01/21 10:29:15;;;;;;;9.88;5.00;;;;;;;;;;5050593;28;20039;-57
2023/01/21 10:31:44;;;;;;;11.30;5.90;;;;;;;;;;5050910;28;21876;-58
2023/01/21 10:34:12;;;;;;;9.57;5.38;;;;;;;;;;5052081;28;20090;-55
2023/01/21 10:36:53;;;;;;;8.20;5.35;;;;;;;;;;5051990;28;20397;-54
2023/01/21 10:39:46;;;;;;;8.02;5.00;;;;;;;;;;5049967;28;20511;-68
2023/01/21 10:42:30;;;;;;;7.78;5.50;;;;;;;;;;5045647;28;20047;-67
2023/01/21 10:45:15;;;;;;;9.43;5.50;;;;;;;;;;5049262;28;20032;-56
2023/01/21 10:47:41;;;;;;;9.60;4.95;;;;;;;;;;5049360;28;20508;-65
2023/01/21 10:50:07;;;;;;;6.80;4.85;;;;;;;;;;5047785;28;20032;-58
2023/01/21 10:52:33;;;;;;;7.95;4.55;;;;;;;;;;5050578;28;20037;-68
2023/01/21 10:55:13;;;;;;;8.48;5.18;;;;;;;;;;5049016;28;20075;-62
2023/01/21 10:58:02;;;;;;;7.40;4.80;;;;;;;;;;5051326;28;20036;-56
2023/01/21 11:00:33;;;;;;;8.02;5.00;;;;;;;;;;5037041;28;20245;-58
2023/01/21 11:03:04;;;;;;;8.75;5.82;;;;;;;;;;5049257;28;20021;-56
2023/01/21 11:05:32;;;;;;;8.10;5.47;;;;;;;;;;5050378;28;20025;-59
2023/01/21 11:07:58;;;;;;;8.57;5.35;;;;;;;;;;5050348;28;20037;-68
2023/01/21 11:10:25;;;;;;;7.68;5.30;;;;;;;;;;5050564;28;20043;-57
2023/01/21 11:12:53;;;;;;;9.63;5.53;;;;;;;;;;5050986;28;20036;-59
2023/01/21 11:15:20;;;;;;;6.10;4.82;;;;;;;;;;5050936;28;20405;-56
2023/01/21 11:17:47;;;;;;;11.52;5.60;;;;;;;;;;5032503;28;20060;-56
2023/01/21 11:20:19;;;;;;;9.48;5.38;;;;;;;;;;5050490;28;20029;-58
2023/01/21 11:22:45;;;;;;;21.25;4.45;;;;;;;;;;5051801;28;20025;-56
2023/01/21 11:25:29;;;;;;;8.85;5.10;;;;;;;;;;5052071;28;20037;-58
2023/01/21 11:27:55;;;;;;;5.90;4.90;;;;;;;;;;5051573;28;20025;-64
2023/01/21 11:30:29;;;;;;;8.82;5.80;;;;;;;;;;5050552;28;20032;-68
2023/01/21 11:33:10;;;;;;;7.78;5.63;;;;;;;;;;5049326;28;20508;-68
2023/01/21 11:35:36;;;;;;;7.50;4.18;;;;;;;;;;5048619;28;20021;-57
2023/01/21 11:38:02;;;;;;;11.15;5.18;;;;;;;;;;5050845;28;20065;-68
2023/01/21 11:40:28;;;;;;;8.95;4.60;;;;;;;;;;5050592;28;20061;-64
2023/01/21 11:42:55;;;;;;;6.47;4.55;;;;;;;;;;5050094;28;20055;-62
2023/01/21 11:45:29;;;;;;;6.50;4.90;;;;;;;;;;5051075;28;20043;-68
2023/01/21 11:47:55;;;;;;;7.28;4.35;;;;;;;;;;5051466;28;20041;-64
2023/01/21 11:50:29;;;;;;;9.57;4.93;;;;;;;;;;5050539;28;20057;-61
2023/01/21 11:53:13;;;;;;;9.85;5.18;;;;;;;;;;5051300;28;20120;-59
2023/01/21 11:55:39;;;;;;;12.43;5.40;;;;;;;;;;5051139;28;20397;-61
2023/01/21 11:58:06;;;;;;;7.22;5.13;;;;;;;;;;5051202;28;20025;-61
2023/01/21 12:00:34;;;;;;;7.43;5.43;;;;;;;;;;5049025;28;20083;-57
2023/01/21 12:03:01;;;;;;;8.07;5.53;;;;;;;;;;5050949;28;20033;-61
2023/01/21 12:05:31;;;;;;;10.88;5.10;;;;;;;;;;5050593;28;20025;-59
2023/01/21 12:07:58;;;;;;;8.70;5.40;;;;;;;;;;5050969;28;20029;-59
2023/01/21 12:11:00;;;;;;;8.65;5.28;;;;;;;;;;5049938;28;20056;-59
2023/01/21 12:13:38;;;;;;;6.82;5.13;;;;;;;;;;4998638;28;20114;-59
2023/01/21 12:16:04;;;;;;;9.35;5.38;;;;;;;;;;5049188;28;20025;-59
2023/01/21 12:18:42;;;;;;;7.57;4.38;;;;;;;;;;5048399;28;20029;-59
2023/01/21 12:21:29;;;;;;;9.00;5.10;;;;;;;;;;5049643;28;20051;-60
2023/01/21 12:24:13;;;;;;;9.02;4.78;;;;;;;;;;5048090;28;20036;-59
2023/01/21 12:26:47;;;;;;;7.10;4.50;;;;;;;;;;5049974;28;20025;-60
2023/01/21 12:29:27;;;;;;;6.70;4.65;;;;;;;;;;5049693;28;20040;-60
2023/01/21 12:32:03;;;;;;;8.90;5.10;;;;;;;;;;5050775;28;20025;-60
2023/01/21 12:34:39;;;;;;;8.32;5.47;;;;;;;;;;5050610;28;20021;-60
2023/01/21 12:37:10;;;;;;;7.38;4.82;;;;;;;;;;5050692;28;20021;-60
2023/01/21 12:39:37;;;;;;;6.95;5.15;;;;;;;;;;5050271;28;20025;-59
2023/01/21 12:42:07;;;;;;;9.50;4.43;;;;;;;;;;5050782;28;20025;-60
2023/01/21 12:44:39;;;;;;;10.15;4.50;;;;;;;;;;5050384;28;20071;-60
2023/01/21 12:47:25;;;;;;;8.57;4.63;;;;;;;;;;5050428;28;20083;-59
2023/01/21 12:49:51;;;;;;;6.38;4.57;;;;;;;;;;5050205;28;20036;-59
2023/01/21 12:52:36;;;;;;;7.00;4.72;;;;;;;;;;5048570;28;20013;-59
2023/01/21 12:55:06;;;;;;;10.07;5.05;;;;;;;;;;5047828;28;20025;-59
2023/01/21 12:57:55;;;;;;;6.18;4.35;;;;;;;;;;5036995;28;20022;-59
2023/01/21 13:00:26;;;;;;;6.60;4.03;;;;;;;;;;5030383;28;20094;-59
2023/01/21 13:03:02;;;;;;;7.63;5.00;;;;;;;;;;5051322;28;20020;-59
2023/01/21 13:05:43;;;;;;;7.55;5.43;;;;;;;;;;5053405;28;20025;-59
2023/01/21 13:08:27;;;;;;;6.55;5.00;;;;;;;;;;5050898;28;20032;-59
2023/01/21 13:10:57;;;;;;;7.20;5.28;;;;;;;;;;5053309;28;20452;-59
2023/01/21 13:13:26;;;;;;;8.63;5.78;;;;;;;;;;5036355;28;20366;-59
2023/01/21 13:15:54;;;;;;;7.10;4.90;;;;;;;;;;5054165;28;20146;-59
2023/01/21 13:18:22;;;;;;;11.07;5.32;;;;;;;;;;5053559;28;20576;-59
2023/01/21 13:21:01;;;;;;;11.70;5.97;;;;;;;;;;5053056;28;20025;-59
2023/01/21 13:23:28;;;;;;;7.53;4.70;;;;;;;;;;5051325;28;20429;-59
2023/01/21 13:26:10;;;;;;;7.90;4.85;;;;;;;;;;5052492;28;20505;-59
2023/01/21 13:28:44;;;;;;;7.97;5.43;;;;;;;;;;5052111;28;20436;-59
2023/01/21 13:31:24;;;;;;;10.05;5.60;;;;;;;;;;5052688;28;20078;-59
2023/01/21 13:33:50;;;;;;;7.72;5.10;;;;;;;;;;5033200;28;20040;-59
2023/01/21 13:36:16;;;;;;;7.15;5.22;;;;;;;;;;5051769;28;20033;-59
2023/01/21 13:38:49;;;;;;;7.53;4.35;;;;;;;;;;5051979;28;20378;-59
2023/01/21 13:41:33;;;;;;;7.57;4.80;;;;;;;;;;5053227;28;20029;-59
2023/01/21 13:44:17;;;;;;;6.47;4.18;;;;;;;;;;5054003;28;20404;-59
2023/01/21 13:47:07;;;;;;;12.45;4.63;;;;;;;;;;5053214;28;20113;-59
2023/01/21 13:49:39;;;;;;;12.65;4.75;;;;;;;;;;5053334;28;20037;-59
2023/01/21 13:52:10;;;;;;;9.95;5.22;;;;;;;;;;5053634;28;20096;-59
2023/01/21 13:54:46;;;;;;;7.63;4.13;;;;;;;;;;5053321;28;20468;-59
2023/01/21 13:57:41;;;;;;;10.10;4.20;;;;;;;;;;5053797;28;20080;-59
2023/01/21 14:00:16;;;;;;;6.50;3.85;;;;;;;;;;5032018;28;20397;-59
2023/01/21 14:02:50;;;;;;;6.97;4.07;;;;;;;;;;5053575;28;20075;-59
2023/01/21 14:05:19;;;;;;;6.97;3.67;;;;;;;;;;5053034;28;20052;-59
2023/01/21 14:08:17;;;;;;;6.78;4.40;;;;;;;;;;5052900;28;20040;-59
2023/01/21 14:10:50;;;;;;;5.38;3.83;;;;;;;;;;4999275;28;20558;-59
2023/01/21 14:13:35;;;;;;;7.97;4.47;;;;;;;;;;5052293;28;20108;-59
2023/01/21 14:16:17;;;;;;;7.13;3.88;;;;;;;;;;5053208;28;20100;-59
2023/01/21 14:18:55;;;;;;;5.57;3.60;;;;;;;;;;5053481;28;20086;-59
2023/01/21 14:21:24;;;;;;;7.22;4.07;;;;;;;;;;5052815;28;20032;-59
2023/01/21 14:23:50;;;;;;;6.15;4.10;;;;;;;;;;5052437;28;20037;-59
2023/01/21 14:26:24;;;;;;;6.47;3.75;;;;;;;;;;5052738;28;20082;-59
2023/01/21 14:29:05;;;;;;;5.13;3.63;;;;;;;;;;5052905;28;20044;-59
2023/01/21 14:31:35;;;;;;;5.03;3.30;;;;;;;;;;5052591;28;20025;-59
2023/01/21 14:34:10;;;;;;;6.55;3.75;;;;;;;;;;5052375;28;20055;-64
2023/01/21 14:36:40;;;;;;;5.90;3.80;;;;;;;;;;5052645;28;20024;-60
2023/01/21 14:39:14;;;;;;;7.78;3.80;;;;;;;;;;5052687;28;20119;-60
2023/01/21 14:41:53;;;;;;;5.70;3.92;;;;;;;;;;5053322;28;20051;-60
2023/01/21 14:44:36;;;;;;;6.50;4.55;;;;;;;;;;5051311;28;20374;-59
2023/01/21 14:47:11;;;;;;;4.88;3.30;;;;;;;;;;5052700;28;20043;-61
2023/01/21 14:49:41;;;;;;;6.82;3.58;;;;;;;;;;5052221;28;20041;-60
2023/01/21 14:52:12;;;;;;;9.00;3.55;;;;;;;;;;5052277;28;20049;-61
2023/01/21 14:54:41;;;;;;;9.43;4.10;;;;;;;;;;5052577;28;20397;-60
2023/01/21 14:57:13;;;;;;;6.28;3.47;;;;;;;;;;5052085;28;20028;-60
2023/01/21 14:59:40;;;;;;;5.95;3.40;;;;;;;;;;5052697;28;20442;-60